»·PEaware :: AAY130 KSNA-KFAT

AAY130 :: KSNA-KFAT

FLIGHT INFORMATION

Flight Status: Arrived
Operator:
Allegiant Air
More flights by this operator :: More flights under this callsign
Pilot: Ben L. (6391)
Aircraft: MCDONNELL-DOUGLAS MD-88
(MD88)
More flights by this aircraft type
Origin: KSNA John Wayne-Orange Co
United States
Destination: KFAT Fresno Yosemite Intl
United States
More flights between these airports :: More routes between these airports
Route: HHERO3 EHF TTE ALTTA9
File this flight plan on PilotEdge
Remarks:
Altitude:
(Current/Filed)
26,000ft
Speed:
(Current/Filed)
440kts
Departed: 06-Mar-20 11:39 AM
Arrived: 06-Mar-20 12:23 PM
Distance/Time
Traveled:
207nm/0:44
Distance/Time
To Go:
Arrived

Flight Plot

Page will automatically refresh every two minutes.

Flight plan parsing failed; only flown route is shown


Map Options




Map Legend


Flown Route
Filed Route
Departure Airport
Arrival Airport
Navaid (VOR, NDB)
Fix

Horizontal Profiles

Position Reports

Time Latitude Longitude Heading Altitude Ground
Speed
06-Mar-20 11:08 33.676771 -117.864055 117 63ft 0kts
06-Mar-20 11:09 33.676771 -117.864055 117 63ft 0kts
06-Mar-20 11:10 33.676771 -117.864055 117 62ft 0kts
06-Mar-20 11:11 33.676771 -117.864055 117 62ft 0kts
06-Mar-20 11:12 33.676771 -117.864055 117 62ft 0kts
06-Mar-20 11:13 33.676771 -117.864055 117 62ft 0kts
06-Mar-20 11:14 33.676771 -117.864055 117 62ft 0kts
06-Mar-20 11:15 33.676771 -117.864055 117 62ft 0kts
06-Mar-20 11:16 33.676771 -117.864055 117 62ft 0kts
06-Mar-20 11:17 33.676771 -117.864055 117 62ft 0kts
06-Mar-20 11:18 33.676771 -117.864055 117 62ft 0kts
06-Mar-20 11:19 33.676771 -117.864055 117 62ft 0kts
06-Mar-20 11:20 33.676771 -117.864055 117 62ft 0kts
06-Mar-20 11:21 33.676771 -117.864055 117 62ft 0kts
06-Mar-20 11:22 33.676771 -117.864055 117 62ft 0kts
06-Mar-20 11:23 33.676771 -117.864055 117 62ft 0kts
06-Mar-20 11:24 33.676771 -117.864055 117 62ft 0kts
06-Mar-20 11:25 33.676771 -117.864055 117 62ft 0kts
06-Mar-20 11:26 33.676771 -117.864055 117 62ft 0kts
06-Mar-20 11:27 33.676771 -117.864055 117 62ft 0kts
06-Mar-20 11:28 33.676827 -117.864470 77 62ft 2kts
06-Mar-20 11:29 33.676432 -117.864979 26 62ft 2kts
06-Mar-20 11:30 33.676094 -117.865203 28 62ft 0kts
06-Mar-20 11:31 33.676094 -117.865203 28 62ft 0kts
06-Mar-20 11:32 33.676094 -117.865203 28 62ft 0kts
06-Mar-20 11:33 33.676094 -117.865203 28 62ft 0kts
06-Mar-20 11:34 33.676357 -117.865031 28 62ft 8kts
06-Mar-20 11:35 33.680070 -117.862721 12 62ft 4kts
06-Mar-20 11:36 33.680315 -117.862733 341 62ft 2kts
06-Mar-20 11:37 33.680967 -117.865469 210 62ft 6kts
06-Mar-20 11:38 33.651358 -117.883765 205 940ft 168kts
06-Mar-20 11:39 33.606102 -117.902489 186 3378ft 181kts
06-Mar-20 11:40 33.557067 -117.914712 222 5322ft 196kts
06-Mar-20 11:41 33.512846 -117.965320 222 6707ft 254kts
06-Mar-20 11:42 33.464943 -118.031153 239 8189ft 277kts
06-Mar-20 11:43 33.423978 -118.116985 237 11350ft 293kts
06-Mar-20 11:44 33.421550 -118.221612 285 13105ft 352kts
06-Mar-20 11:45 33.452985 -118.335042 297 15536ft 370kts
06-Mar-20 11:46 33.498916 -118.436947 296 17607ft 382kts
06-Mar-20 11:47 33.588526 -118.488278 12 19439ft 399kts
06-Mar-20 11:48 33.699791 -118.464322 7 21179ft 412kts
06-Mar-20 11:49 33.816509 -118.459386 359 22756ft 423kts
06-Mar-20 11:50 33.935675 -118.459533 359 24184ft 433kts
06-Mar-20 11:51 34.058628 -118.468149 351 25478ft 442kts
06-Mar-20 11:52 34.183064 -118.487679 351 26089ft 450kts
06-Mar-20 11:53 34.308883 -118.507164 352 26094ft 450kts
06-Mar-20 11:54 34.434180 -118.526559 352 26132ft 458kts
06-Mar-20 11:55 34.562775 -118.546452 352 26132ft 471kts
06-Mar-20 11:56 34.694472 -118.566823 352 26170ft 479kts
06-Mar-20 11:58 34.827910 -118.587463 352 26185ft 485kts
06-Mar-20 11:59 34.962679 -118.608315 352 26176ft 490kts
06-Mar-20 12:00 35.077316 -118.679367 315 26178ft 485kts
06-Mar-20 12:01 35.180071 -118.786831 317 26086ft 490kts
06-Mar-20 12:02 35.284925 -118.893859 317 26045ft 486kts
06-Mar-20 12:03 35.386386 -118.997282 317 26047ft 469kts
06-Mar-20 12:04 35.487380 -119.100158 317 25125ft 473kts
06-Mar-20 12:05 35.608155 -119.124673 23 24070ft 450kts
06-Mar-20 12:06 35.730727 -119.078322 14 24081ft 468kts
06-Mar-20 12:07 35.856793 -119.038531 14 22514ft 458kts
06-Mar-20 12:08 35.977265 -119.048128 333 20531ft 433kts
06-Mar-20 12:09 36.087329 -119.103826 337 18516ft 414kts
06-Mar-20 12:10 36.175170 -119.146019 337 16180ft 364kts
06-Mar-20 12:11 36.269411 -119.191195 337 14040ft 361kts
06-Mar-20 12:12 36.360538 -119.234841 337 13629ft 350kts
06-Mar-20 12:13 36.450795 -119.278062 337 12115ft 343kts
06-Mar-20 12:14 36.537954 -119.319833 335 10555ft 319kts
06-Mar-20 12:14 36.582304 -119.380771 268 9267ft 272kts
06-Mar-20 12:16 36.551915 -119.474368 242 7556ft 241kts
06-Mar-20 12:17 36.560873 -119.540960 352 6110ft 239kts
06-Mar-20 12:17 36.616234 -119.541785 344 4940ft 236kts
06-Mar-20 12:19 36.684405 -119.576451 313 3567ft 217kts
06-Mar-20 12:20 36.724249 -119.627015 312 2635ft 197kts
06-Mar-20 12:20 36.745836 -119.665160 292 1452ft 168kts
06-Mar-20 12:21 36.771558 -119.708356 304 340ft 143kts
06-Mar-20 12:23 36.783171 -119.730336 251 334ft 13kts
06-Mar-20 12:23 36.781929 -119.731812 207 334ft 13kts
06-Mar-20 12:24 36.778058 -119.726189 125 334ft 24kts
06-Mar-20 12:25 36.773960 -119.719825 155 334ft 18kts
06-Mar-20 12:26 36.771980 -119.719177 138 334ft 1kts
06-Mar-20 12:27 36.771892 -119.719062 128 334ft 0kts
06-Mar-20 12:28 36.771892 -119.719062 128 334ft 0kts
06-Mar-20 12:29 36.771892 -119.719062 128 334ft 0kts
06-Mar-20 12:30 36.771892 -119.719062 128 334ft 0kts
06-Mar-20 12:31 36.771892 -119.719062 128 334ft 0kts
06-Mar-20 12:32 36.771892 -119.719062 128 334ft 0kts
06-Mar-20 12:33 36.771892 -119.719062 128 334ft 0kts
06-Mar-20 12:34 36.771892 -119.719062 128 334ft 0kts
06-Mar-20 12:35 36.771892 -119.719062 128 334ft 0kts
06-Mar-20 12:36 36.771892 -119.719062 128 334ft 0kts

Navigation Log

Ident Type
Flight plan parsing failed, navigation log unavailable